VCBI/CMB METAR and TAF weather

Enter ICAO airport designator
Station Type Date Time Source
VCBI METAR 2020/01/20 10:10 UTC NOAA

VCBI 201010Z 04007KT 010V100 9999 BKN018 FEW020TCU 33/22 Q1008 NOSIG RMK E


Station Type Date Time Source
VCBI Decoded METAR 2020/01/20 10:10 UTC NOAA

Katunayake, Sri Lanka (VCBI) 07-10N 079-53E 8M
Jan 20, 2020 - 05:10 AM EST / 2020.01.20 1010 UTC
Wind: from the NE (040 degrees) at 8 MPH (7 KT) (direction variable):0
Visibility: greater than 7 mile(s):0
Sky conditions: mostly cloudy
Weather: Towering cumulus clouds observed
Temperature: 91 F (33 C)
Heat index: 97.5 F (36.4 C):1
Dew Point: 71 F (22 C)
Relative Humidity: 52%
Pressure (altimeter): 29.77 in. Hg (1008 hPa)
ob: VCBI 201010Z 04007KT 010V100 9999 BKN018 FEW020TCU 33/22 Q1008 NOSIG RMK E
cycle: 10

Station Type Date Time Source
VCBI TAF 2020/01/20 06:15 UTC NOAA

TAF VCBI 200500Z 2006/2112 05008KT 9999 FEW018 TX32/2008Z TN24/2100Z PROB40
TEMPO 2010/2015 -TSRA/SHRA SCT016 FEW020CB
TEMPO 2023/2102 8000

Example: see airport list